createdAt,value
2019-03-16T00:00:55.392Z,0.60
2019-03-16T00:03:24.217Z,1.13
2019-03-16T00:05:53.001Z,0.70
2019-03-16T00:08:22.056Z,0.50
2019-03-16T00:10:51.420Z,0.60
2019-03-16T00:13:20.507Z,1.70
2019-03-16T00:15:49.746Z,0.60
2019-03-16T00:18:18.944Z,0.50
2019-03-16T00:20:47.837Z,0.60
2019-03-16T00:23:16.693Z,0.63
2019-03-16T00:25:45.489Z,0.80
2019-03-16T00:28:14.408Z,0.43
2019-03-16T00:30:43.193Z,0.63
2019-03-16T00:33:12.617Z,0.83
2019-03-16T00:35:41.469Z,0.87
2019-03-16T00:38:10.279Z,1.97
2019-03-16T00:40:39.579Z,0.60
2019-03-16T00:43:08.662Z,0.70
2019-03-16T00:45:37.448Z,0.70
2019-03-16T00:48:06.384Z,1.27
2019-03-16T00:50:35.508Z,1.97
2019-03-16T00:53:04.769Z,0.80
2019-03-16T00:55:34.126Z,0.80
2019-03-16T00:58:06.057Z,0.70
2019-03-16T01:00:34.915Z,0.70
2019-03-16T01:03:05.576Z,0.80
2019-03-16T01:05:34.425Z,1.27
2019-03-16T01:08:03.243Z,0.63
2019-03-16T01:10:32.357Z,1.47
2019-03-16T01:13:01.160Z,0.70
2019-03-16T01:15:29.928Z,0.70
2019-03-16T01:17:58.872Z,1.23
2019-03-16T01:20:28.001Z,0.60
2019-03-16T01:22:56.897Z,0.63
2019-03-16T01:25:25.736Z,0.50
2019-03-16T01:27:54.884Z,1.10
2019-03-16T01:30:23.689Z,0.60
2019-03-16T01:32:52.841Z,2.67
2019-03-16T01:35:21.776Z,0.50
2019-03-16T01:37:50.677Z,0.87
2019-03-16T01:40:19.496Z,0.50
2019-03-16T01:42:48.301Z,0.70
2019-03-16T01:45:17.589Z,0.60
2019-03-16T01:47:46.705Z,0.70
2019-03-16T01:50:15.684Z,0.57
2019-03-16T01:52:44.488Z,2.00
2019-03-16T01:55:13.440Z,0.60
2019-03-16T01:57:42.589Z,0.80
2019-03-16T02:00:11.955Z,0.97
2019-03-16T02:02:53.728Z,2.77
2019-03-16T02:05:11.671Z,0.70
2019-03-16T02:07:40.520Z,0.70
2019-03-16T02:10:09.885Z,2.10
2019-03-16T02:12:39.078Z,0.90
2019-03-16T02:15:08.253Z,2.87
2019-03-16T02:17:37.138Z,0.73
2019-03-16T02:20:06.584Z,1.10
2019-03-16T02:22:35.461Z,1.33
2019-03-16T02:25:04.531Z,1.90
2019-03-16T02:27:33.329Z,1.00
2019-03-16T02:30:02.395Z,0.77
2019-03-16T02:32:31.205Z,0.80
2019-03-16T02:35:00.016Z,1.00
2019-03-16T02:37:28.934Z,0.63
2019-03-16T02:39:57.828Z,0.73
2019-03-16T02:42:26.988Z,0.70
2019-03-16T02:44:55.872Z,2.93
2019-03-16T02:47:24.916Z,0.70
2019-03-16T02:49:53.766Z,0.60
2019-03-16T02:52:22.831Z,1.03
2019-03-16T02:54:51.724Z,1.53
2019-03-16T02:57:20.530Z,1.03
2019-03-16T02:59:49.435Z,1.43
2019-03-16T03:02:18.627Z,2.33
2019-03-16T03:04:47.522Z,0.60
2019-03-16T03:07:16.432Z,0.83
2019-03-16T03:09:45.286Z,1.43
2019-03-16T03:12:14.155Z,3.30
2019-03-16T03:14:43.333Z,0.57
2019-03-16T03:17:12.285Z,0.70
2019-03-16T03:19:41.125Z,0.87
2019-03-16T03:22:09.941Z,0.70
2019-03-16T03:24:38.784Z,0.83
2019-03-16T03:27:09.313Z,2.67
2019-03-16T03:29:38.275Z,0.63
2019-03-16T03:32:07.062Z,0.77
2019-03-16T03:34:36.199Z,0.70
2019-03-16T03:37:05.394Z,0.70
2019-03-16T03:39:34.284Z,0.70
2019-03-16T03:42:04.094Z,0.77
2019-03-16T03:44:32.903Z,0.60
2019-03-16T03:47:02.077Z,3.70
2019-03-16T03:49:30.978Z,0.83
2019-03-16T03:52:00.061Z,0.73
2019-03-16T03:54:29.261Z,1.60
2019-03-16T03:56:58.060Z,0.70
2019-03-16T03:59:26.925Z,1.57
2019-03-16T04:01:55.859Z,0.80
2019-03-16T04:04:25.101Z,0.90
2019-03-16T04:06:54.108Z,3.37
2019-03-16T04:09:23.298Z,0.70
2019-03-16T04:11:52.369Z,0.70
2019-03-16T04:14:21.245Z,0.97
2019-03-16T04:16:50.033Z,2.37
2019-03-16T04:19:18.955Z,1.37
2019-03-16T04:21:47.758Z,0.93
2019-03-16T04:24:16.615Z,2.67
2019-03-16T04:26:45.407Z,0.87
2019-03-16T04:29:14.590Z,0.73
2019-03-16T04:31:43.372Z,1.33
2019-03-16T04:34:12.167Z,0.77
2019-03-16T04:36:41.455Z,0.90
2019-03-16T04:39:10.589Z,2.03
2019-03-16T04:41:39.870Z,1.10
2019-03-16T04:44:08.948Z,1.50
2019-03-16T04:46:37.845Z,4.13
2019-03-16T04:49:06.706Z,2.93
2019-03-16T04:51:35.598Z,1.57
2019-03-16T04:54:04.806Z,3.03
2019-03-16T04:56:33.909Z,1.93
2019-03-16T04:59:02.829Z,1.30
2019-03-16T05:01:31.621Z,5.90
2019-03-16T05:04:00.440Z,2.30
2019-03-16T05:06:29.234Z,1.07
2019-03-16T05:08:58.150Z,1.60
2019-03-16T05:11:27.047Z,1.77
2019-03-16T05:13:55.913Z,2.97
2019-03-16T05:16:25.032Z,1.37
2019-03-16T05:18:54.098Z,2.57
2019-03-16T05:21:22.901Z,3.63
2019-03-16T05:23:51.690Z,1.10
2019-03-16T05:26:20.819Z,2.67
2019-03-16T05:28:49.617Z,0.80
2019-03-16T05:31:18.431Z,3.03
2019-03-16T05:33:47.213Z,1.30
2019-03-16T05:36:16.141Z,2.00
2019-03-16T05:38:44.908Z,1.97
2019-03-16T05:41:13.710Z,1.27
2019-03-16T05:43:42.612Z,6.57
2019-03-16T05:46:11.468Z,1.23
2019-03-16T05:48:40.493Z,1.13
2019-03-16T05:51:09.815Z,3.23
2019-03-16T05:53:38.620Z,5.20
2019-03-16T05:56:07.532Z,1.43
2019-03-16T05:58:36.330Z,2.93
2019-03-16T06:01:05.626Z,1.03
2019-03-16T06:03:34.396Z,2.43
2019-03-16T06:06:03.277Z,2.17
2019-03-16T06:08:32.184Z,3.13
2019-03-16T06:11:01.261Z,1.53
2019-03-16T06:13:30.053Z,2.67
2019-03-16T06:15:58.855Z,2.07
2019-03-16T06:18:27.639Z,1.57
2019-03-16T06:20:56.928Z,3.67
2019-03-16T06:23:25.863Z,1.50
2019-03-16T06:25:54.662Z,2.60
2019-03-16T06:28:23.433Z,3.27
2019-03-16T06:30:52.215Z,1.20
2019-03-16T06:33:21.001Z,3.07
2019-03-16T06:35:49.860Z,1.20
2019-03-16T06:38:18.912Z,1.93
2019-03-16T06:40:47.718Z,1.93
2019-03-16T06:43:16.584Z,2.13
2019-03-16T06:45:46.118Z,1.90
2019-03-16T06:48:15.553Z,1.40
2019-03-16T06:50:44.398Z,1.63
2019-03-16T06:53:13.264Z,1.47
2019-03-16T06:55:42.125Z,3.10
2019-03-16T06:58:11.261Z,4.50
2019-03-16T07:00:40.232Z,2.47
2019-03-16T07:03:09.352Z,2.73
2019-03-16T07:05:39.073Z,2.20
2019-03-16T07:08:08.029Z,1.20
2019-03-16T07:10:36.994Z,1.57
2019-03-16T07:13:05.796Z,1.73
2019-03-16T07:15:34.852Z,2.30
2019-03-16T07:18:03.747Z,2.33
2019-03-16T07:20:35.377Z,2.67
2019-03-16T07:23:04.264Z,3.33
2019-03-16T07:25:33.145Z,1.83
2019-03-16T07:28:01.947Z,1.73
2019-03-16T07:30:30.890Z,2.53
2019-03-16T07:32:59.709Z,2.17
2019-03-16T07:35:29.321Z,1.50
2019-03-16T07:37:58.205Z,2.00
2019-03-16T07:40:27.026Z,2.10
2019-03-16T07:42:55.823Z,3.57
2019-03-16T07:45:24.621Z,7.03
2019-03-16T07:47:53.417Z,4.13
2019-03-16T07:50:22.457Z,4.07
2019-03-16T07:52:51.645Z,2.77
2019-03-16T07:55:20.537Z,1.40
2019-03-16T07:57:49.337Z,1.80
2019-03-16T08:00:18.238Z,4.30
2019-03-16T08:02:47.489Z,4.33
2019-03-16T08:05:19.283Z,2.83
2019-03-16T08:07:47.175Z,3.17
2019-03-16T08:10:16.093Z,1.67
2019-03-16T08:12:44.878Z,3.47
2019-03-16T08:15:13.846Z,3.40
2019-03-16T08:17:42.616Z,4.43
2019-03-16T08:20:12.044Z,1.77
2019-03-16T08:22:40.929Z,3.93
2019-03-16T08:25:09.977Z,3.73
2019-03-16T08:27:38.827Z,5.17
2019-03-16T08:30:08.273Z,3.13
2019-03-16T08:32:37.599Z,5.30
2019-03-16T08:35:06.637Z,2.63
2019-03-16T08:37:35.992Z,2.27
2019-03-16T08:40:05.387Z,2.93
2019-03-16T08:42:34.229Z,4.77
2019-03-16T08:45:03.133Z,2.07
2019-03-16T08:47:32.514Z,4.33
2019-03-16T08:50:01.376Z,2.93
2019-03-16T08:52:30.286Z,2.33
2019-03-16T08:54:59.092Z,2.97
2019-03-16T08:57:27.924Z,4.37
2019-03-16T08:59:57.465Z,3.57
2019-03-16T09:02:26.654Z,1.33
2019-03-16T09:04:55.461Z,3.47
2019-03-16T09:07:25.079Z,3.47
2019-03-16T09:09:54.308Z,3.67
2019-03-16T09:12:23.090Z,2.23
2019-03-16T09:14:52.403Z,2.77
2019-03-16T09:17:21.264Z,2.57
2019-03-16T09:19:50.211Z,2.83
2019-03-16T09:22:19.056Z,2.87
2019-03-16T09:24:48.161Z,2.00
2019-03-16T09:27:16.954Z,3.77
2019-03-16T09:29:46.249Z,4.27
2019-03-16T09:32:15.346Z,3.47
2019-03-16T09:34:44.465Z,4.10
2019-03-16T09:37:13.356Z,2.50
2019-03-16T09:39:42.464Z,4.87
2019-03-16T09:42:11.278Z,2.23
2019-03-16T09:44:40.338Z,1.90
2019-03-16T09:47:09.236Z,2.00
2019-03-16T09:49:38.029Z,2.37
2019-03-16T09:52:07.170Z,6.20
2019-03-16T09:54:36.112Z,2.67
2019-03-16T09:57:05.060Z,1.40
2019-03-16T09:59:33.970Z,5.97
2019-03-16T10:02:02.793Z,2.53
2019-03-16T10:04:31.942Z,2.67
2019-03-16T10:07:00.733Z,4.30
2019-03-16T10:09:29.924Z,2.17
2019-03-16T10:11:59.193Z,2.90
2019-03-16T10:14:28.071Z,1.83
2019-03-16T10:16:57.046Z,2.43
2019-03-16T10:19:26.193Z,1.80
2019-03-16T10:21:55.060Z,1.30
2019-03-16T10:24:23.874Z,2.43
2019-03-16T10:26:53.269Z,2.67
2019-03-16T10:29:22.179Z,6.83
2019-03-16T10:31:51.282Z,3.17
2019-03-16T10:34:20.159Z,2.27
2019-03-16T10:36:48.953Z,4.67
2019-03-16T10:39:17.786Z,2.13
2019-03-16T10:41:47.145Z,1.73
2019-03-16T10:44:16.236Z,1.77
2019-03-16T10:46:45.313Z,3.87
2019-03-16T10:49:14.115Z,2.33
2019-03-16T10:51:43.045Z,2.20
2019-03-16T10:54:11.876Z,1.43
2019-03-16T10:56:40.868Z,1.57
2019-03-16T10:59:09.766Z,1.23
2019-03-16T11:01:38.669Z,1.97
2019-03-16T11:04:07.527Z,1.33
2019-03-16T11:06:36.345Z,1.27
2019-03-16T11:09:07.239Z,2.90
2019-03-16T11:11:36.237Z,1.03
2019-03-16T11:14:05.203Z,2.10
2019-03-16T11:16:35.034Z,1.27
2019-03-16T11:19:03.968Z,4.30
2019-03-16T11:21:32.785Z,0.80
2019-03-16T11:24:01.568Z,1.23
2019-03-16T11:26:30.757Z,1.10
2019-03-16T11:29:08.529Z,3.40
2019-03-16T11:31:30.100Z,2.53
2019-03-16T11:33:58.965Z,2.60
2019-03-16T11:36:27.852Z,1.40
2019-03-16T11:38:56.666Z,0.93
2019-03-16T11:41:25.461Z,0.90
2019-03-16T11:43:54.419Z,1.63
2019-03-16T11:46:23.237Z,0.77
2019-03-16T11:48:52.093Z,0.80
2019-03-16T11:51:40.118Z,0.60
2019-03-16T11:54:08.912Z,1.17
2019-03-16T11:56:39.064Z,0.68
2019-03-16T11:59:16.966Z,2.25
2019-03-16T12:01:38.684Z,0.70
2019-03-16T12:04:08.044Z,1.05
2019-03-16T12:06:37.668Z,1.25
2019-03-16T12:09:07.759Z,0.75
2019-03-16T12:11:36.701Z,1.50
2019-03-16T12:14:05.565Z,1.30
2019-03-16T12:16:34.644Z,0.78
2019-03-16T12:19:03.447Z,1.80
2019-03-16T12:21:32.329Z,0.50
2019-03-16T12:24:01.373Z,0.60
2019-03-16T12:26:30.196Z,0.70
2019-03-16T12:28:58.971Z,2.00
2019-03-16T12:31:27.945Z,3.42
2019-03-16T12:33:57.202Z,1.07
2019-03-16T12:36:26.064Z,0.70
2019-03-16T12:38:54.848Z,0.50
2019-03-16T12:41:23.736Z,0.50
2019-03-16T12:43:52.660Z,0.63
2019-03-16T12:46:21.953Z,0.57
2019-03-16T12:48:50.851Z,1.15
2019-03-16T12:51:19.926Z,0.75
2019-03-16T12:53:49.281Z,1.02
2019-03-16T12:56:18.115Z,0.60
2019-03-16T12:58:46.961Z,0.80
2019-03-16T13:01:15.781Z,0.70
2019-03-16T13:03:49.242Z,0.50
2019-03-16T13:06:19.149Z,1.02
2019-03-16T13:08:48.697Z,0.55
2019-03-16T13:11:17.885Z,0.70
2019-03-16T13:13:47.329Z,2.12
2019-03-16T13:16:16.278Z,0.75
2019-03-16T13:18:45.356Z,0.50
2019-03-16T13:21:14.120Z,0.72
2019-03-16T13:23:43.043Z,0.57
2019-03-16T13:26:11.839Z,0.53
2019-03-16T13:28:40.929Z,0.90
2019-03-16T13:31:10.177Z,0.42
2019-03-16T13:33:39.483Z,0.60
2019-03-16T13:36:08.451Z,2.15
2019-03-16T13:38:37.309Z,1.00
2019-03-16T13:41:06.208Z,0.78
2019-03-16T13:43:35.530Z,2.87
2019-03-16T13:46:04.422Z,1.35
2019-03-16T13:48:33.401Z,0.70
2019-03-16T13:51:02.180Z,0.57
2019-03-16T13:53:32.683Z,0.55
2019-03-16T13:56:01.492Z,0.75
2019-03-16T13:58:30.384Z,0.65
2019-03-16T14:00:59.174Z,0.70
2019-03-16T14:03:28.130Z,0.70
2019-03-16T14:05:57.546Z,0.65
2019-03-16T14:08:26.704Z,0.78
2019-03-16T14:10:55.475Z,0.80
2019-03-16T14:13:24.933Z,1.07
2019-03-16T14:15:53.774Z,2.85
2019-03-16T14:18:22.574Z,0.80
2019-03-16T14:20:51.668Z,0.85
2019-03-16T14:23:20.462Z,3.42
2019-03-16T14:25:50.132Z,1.30
2019-03-16T14:28:19.390Z,2.12
2019-03-16T14:30:49.144Z,1.40
2019-03-16T14:33:18.966Z,0.60
2019-03-16T14:35:47.760Z,0.90
2019-03-16T14:38:17.054Z,0.85
2019-03-16T14:40:45.948Z,0.72
2019-03-16T14:43:14.765Z,1.02
2019-03-16T14:45:44.354Z,0.80
2019-03-16T14:48:13.148Z,1.12
2019-03-16T14:50:41.935Z,1.05
2019-03-16T14:53:10.810Z,0.70
2019-03-16T14:55:39.937Z,0.90
2019-03-16T14:58:08.709Z,1.00
2019-03-16T15:00:38.989Z,1.13
2019-03-16T15:03:07.923Z,0.80
2019-03-16T15:05:37.209Z,0.77
2019-03-16T15:08:06.153Z,0.70
2019-03-16T15:10:35.094Z,0.73
2019-03-16T15:13:04.022Z,1.77
2019-03-16T15:15:32.815Z,0.80
2019-03-16T15:18:01.713Z,0.90
2019-03-16T15:20:30.696Z,0.97
2019-03-16T15:22:59.591Z,1.17
2019-03-16T15:25:28.397Z,0.97
2019-03-16T15:27:57.194Z,1.20
2019-03-16T15:30:26.094Z,1.10
2019-03-16T15:32:55.316Z,0.83
2019-03-16T15:35:24.232Z,0.70
2019-03-16T15:37:53.451Z,0.93
2019-03-16T15:40:22.410Z,0.83
2019-03-16T15:42:51.338Z,1.00
2019-03-16T15:45:20.369Z,1.23
2019-03-16T15:47:49.749Z,1.02
2019-03-16T15:50:18.915Z,0.80
2019-03-16T15:52:47.851Z,0.70
2019-03-16T15:55:16.721Z,2.23
2019-03-16T15:57:45.635Z,1.10
2019-03-16T16:00:15.012Z,0.60
2019-03-16T16:02:44.029Z,2.00
2019-03-16T16:05:14.468Z,1.17
2019-03-16T16:07:43.415Z,0.70
2019-03-16T16:10:12.999Z,1.03
2019-03-16T16:12:42.304Z,3.60
2019-03-16T16:15:11.629Z,1.03
2019-03-16T16:17:40.591Z,1.50
2019-03-16T16:20:10.145Z,1.00
2019-03-16T16:22:39.387Z,2.07
2019-03-16T16:25:09.031Z,2.97
2019-03-16T16:27:37.928Z,1.33
2019-03-16T16:30:08.032Z,0.80
2019-03-16T16:32:39.947Z,0.90
2019-03-16T16:35:09.772Z,0.93
2019-03-16T16:37:38.626Z,1.27
2019-03-16T16:40:09.112Z,1.17
2019-03-16T16:42:38.178Z,0.87
2019-03-16T16:45:08.103Z,3.73
2019-03-16T16:47:37.073Z,1.33
2019-03-16T16:50:08.124Z,1.63
2019-03-16T16:52:37.239Z,0.87
2019-03-16T16:55:06.233Z,1.70
2019-03-16T16:57:35.194Z,1.43
2019-03-16T17:00:09.217Z,1.87
2019-03-16T17:02:41.485Z,1.20
2019-03-16T17:05:10.466Z,1.47
2019-03-16T17:07:39.443Z,4.00
2019-03-16T17:10:10.204Z,1.40
2019-03-16T17:12:39.067Z,1.00
2019-03-16T17:15:09.014Z,1.43
2019-03-16T17:17:38.077Z,1.67
2019-03-16T17:20:08.028Z,0.93
2019-03-16T17:22:37.547Z,1.47
2019-03-16T17:25:06.866Z,1.07
2019-03-16T17:27:36.176Z,1.47
2019-03-16T17:30:07.189Z,1.00
2019-03-16T17:32:37.041Z,1.80
2019-03-16T17:35:05.953Z,1.40
2019-03-16T17:37:34.821Z,2.63
2019-03-16T17:40:03.898Z,1.30
2019-03-16T17:42:33.032Z,3.23
2019-03-16T17:45:02.049Z,1.37
2019-03-16T17:47:30.841Z,2.53
2019-03-16T17:49:59.612Z,1.20
2019-03-16T17:52:28.543Z,1.43
2019-03-16T17:54:57.497Z,2.70
2019-03-16T17:57:26.317Z,1.97
2019-03-16T17:59:56.967Z,1.83
2019-03-16T18:02:25.952Z,3.00
2019-03-16T18:04:54.930Z,1.70
2019-03-16T18:07:24.130Z,1.50
2019-03-16T18:09:53.081Z,8.77
2019-03-16T18:12:22.053Z,4.50
2019-03-16T18:14:51.396Z,3.60
2019-03-16T18:17:20.208Z,2.77
2019-03-16T18:19:49.156Z,2.53
2019-03-16T18:22:18.138Z,2.20
2019-03-16T18:24:46.981Z,2.83
2019-03-16T18:27:15.848Z,2.43
2019-03-16T18:29:44.656Z,2.63
2019-03-16T18:32:13.653Z,3.10
2019-03-16T18:34:42.450Z,2.33
2019-03-16T18:37:11.600Z,4.10
2019-03-16T18:39:40.392Z,3.60
2019-03-16T18:42:09.609Z,3.90
2019-03-16T18:44:38.476Z,4.87
2019-03-16T18:47:07.411Z,5.90
2019-03-16T18:49:36.262Z,4.37
2019-03-16T18:52:05.271Z,4.57
2019-03-16T18:54:34.323Z,5.40
2019-03-16T18:57:03.289Z,2.97
2019-03-16T18:59:32.176Z,4.13
2019-03-16T19:02:01.016Z,6.77
2019-03-16T19:04:29.817Z,3.97
2019-03-16T19:06:58.621Z,4.57
2019-03-16T19:09:27.593Z,3.97
2019-03-16T19:11:56.464Z,3.13
2019-03-16T19:14:25.527Z,4.77
2019-03-16T19:16:54.746Z,8.10
2019-03-16T19:19:23.861Z,7.17
2019-03-16T19:21:52.790Z,5.13
2019-03-16T19:24:22.013Z,7.23
2019-03-16T19:26:50.942Z,4.93
2019-03-16T19:29:20.157Z,5.37
2019-03-16T19:31:49.103Z,3.20
2019-03-16T19:34:18.099Z,3.60
2019-03-16T19:36:47.107Z,4.27
2019-03-16T19:39:16.001Z,4.00
2019-03-16T19:41:45.447Z,3.90
2019-03-16T19:44:14.444Z,5.13
2019-03-16T19:46:44.456Z,2.77
2019-03-16T19:49:13.582Z,4.27
2019-03-16T19:51:42.871Z,3.57
2019-03-16T19:54:12.468Z,2.63
2019-03-16T19:56:41.981Z,2.10
2019-03-16T19:59:11.085Z,2.50
2019-03-16T20:01:40.348Z,2.20
2019-03-16T20:04:09.227Z,2.53
2019-03-16T20:06:39.642Z,1.67
2019-03-16T20:09:09.360Z,2.57
2019-03-16T20:11:38.450Z,2.63
2019-03-16T20:14:07.383Z,4.07
2019-03-16T20:16:36.410Z,3.33
2019-03-16T20:19:05.515Z,3.67
2019-03-16T20:21:34.725Z,3.43
2019-03-16T20:24:03.887Z,4.37
2019-03-16T20:26:32.886Z,3.17
2019-03-16T20:29:02.480Z,4.23
2019-03-16T20:31:31.840Z,3.10
2019-03-16T20:34:01.423Z,4.77
2019-03-16T20:36:30.429Z,3.80
2019-03-16T20:38:59.877Z,4.63
2019-03-16T20:41:36.109Z,4.27
2019-03-16T20:43:59.845Z,3.30
2019-03-16T20:46:28.964Z,4.67
2019-03-16T20:48:58.478Z,3.53
2019-03-16T20:51:28.031Z,3.30
2019-03-16T20:53:57.106Z,3.13
2019-03-16T20:56:26.609Z,3.93
2019-03-16T20:58:55.949Z,3.73
2019-03-16T21:01:25.209Z,3.30
2019-03-16T21:03:54.667Z,6.20
2019-03-16T21:06:23.794Z,3.70
2019-03-16T21:09:02.547Z,3.40
2019-03-16T21:11:23.933Z,5.87
2019-03-16T21:13:53.297Z,7.30
2019-03-16T21:16:22.789Z,31.07
2019-03-16T21:18:52.037Z,16.50
2019-03-16T21:21:21.457Z,19.20
2019-03-16T21:23:50.354Z,20.33
2019-03-16T21:26:19.408Z,17.63
2019-03-16T21:28:48.308Z,15.33
2019-03-16T21:31:17.724Z,18.13
2019-03-16T21:33:46.751Z,15.17
2019-03-16T21:36:15.539Z,9.60
2019-03-16T21:38:44.382Z,5.37
2019-03-16T21:41:13.261Z,5.40
2019-03-16T21:43:42.105Z,3.90
2019-03-16T21:46:19.588Z,4.03
2019-03-16T21:48:48.488Z,7.13
2019-03-16T21:51:17.658Z,5.83
2019-03-16T21:53:46.977Z,4.17
2019-03-16T21:56:16.293Z,5.33
2019-03-16T21:58:45.198Z,5.40
2019-03-16T22:01:14.021Z,8.80
2019-03-16T22:03:42.906Z,9.07
2019-03-16T22:06:11.781Z,6.67
2019-03-16T22:08:40.879Z,6.27
2019-03-16T22:11:11.471Z,5.67
2019-03-16T22:13:40.735Z,5.17
2019-03-16T22:16:11.780Z,5.40
2019-03-16T22:18:40.367Z,4.17
2019-03-16T22:21:09.488Z,4.57
2019-03-16T22:23:38.373Z,3.10
2019-03-16T22:26:07.537Z,4.00
2019-03-16T22:28:36.445Z,3.77
2019-03-16T22:31:05.307Z,5.83
2019-03-16T22:33:34.200Z,5.37
2019-03-16T22:36:02.989Z,3.93
2019-03-16T22:38:31.966Z,5.97
2019-03-16T22:41:00.784Z,4.27
2019-03-16T22:43:29.894Z,6.23
2019-03-16T22:45:59.047Z,8.47
2019-03-16T22:48:27.973Z,4.50
2019-03-16T22:50:56.885Z,5.20
2019-03-16T22:53:26.097Z,6.23
2019-03-16T22:55:54.880Z,5.67
2019-03-16T22:58:23.683Z,6.93
2019-03-16T23:00:53.392Z,4.80
2019-03-16T23:03:22.743Z,6.30
2019-03-16T23:05:52.155Z,4.30
2019-03-16T23:08:21.280Z,6.77
2019-03-16T23:10:50.787Z,4.83
2019-03-16T23:13:19.951Z,3.80
2019-03-16T23:15:49.018Z,6.70
2019-03-16T23:18:18.685Z,5.10
2019-03-16T23:20:47.547Z,4.40
2019-03-16T23:23:16.672Z,4.90
2019-03-16T23:25:45.872Z,3.93
2019-03-16T23:28:15.635Z,3.47
2019-03-16T23:30:44.970Z,3.93
2019-03-16T23:33:14.142Z,5.60
2019-03-16T23:35:43.310Z,6.07
2019-03-16T23:38:12.773Z,5.77
2019-03-16T23:40:42.658Z,5.07
2019-03-16T23:43:11.632Z,5.27
2019-03-16T23:45:40.687Z,4.13
2019-03-16T23:48:09.839Z,5.60
2019-03-16T23:50:39.574Z,5.43
2019-03-16T23:53:08.642Z,5.67
2019-03-16T23:55:37.622Z,7.07
2019-03-16T23:58:06.610Z,5.67
